Time;durP1;ratioP1;P1;durP2;ratioP2;P2;SDS_P1;SDS_P2;PMS_P1;PMS_P2;Temp;Humidity;BMP_temperature;BMP_pressure;BME280_temperature;BME280_humidity;BME280_pressure;Samples;Min_cycle;Max_cycle;Signal;HPM_P1;HPM_P2
2022/10/17 00:00:31;;;;;;;4.57;3.50;;;18.00;83.60;;;-142.21;100.00;112049.66;5113799;28;20436;-71
2022/10/17 00:03:01;;;;;;;3.93;3.23;;;18.00;83.50;;;-142.21;100.00;112049.66;5113281;28;20449;-70
2022/10/17 00:05:28;;;;;;;5.50;3.40;;;18.00;83.50;;;-142.21;100.00;112049.66;5113587;28;20534;-70
2022/10/17 00:07:55;;;;;;;8.27;3.57;;;17.90;83.60;;;-142.21;100.00;112049.66;5113370;28;20437;-70
2022/10/17 00:10:23;;;;;;;5.70;3.30;;;17.90;83.60;;;-142.21;100.00;112049.66;5114067;28;20532;-70
2022/10/17 00:12:53;;;;;;;4.97;3.90;;;17.90;83.30;;;-142.21;100.00;112049.66;5113211;28;20438;-70
2022/10/17 00:15:21;;;;;;;3.20;2.90;;;17.90;83.30;;;-142.21;100.00;112049.66;5113910;28;20470;-69
2022/10/17 00:17:49;;;;;;;4.40;3.27;;;17.90;83.30;;;-142.21;100.00;112049.66;5112610;28;20509;-70
2022/10/17 00:20:18;;;;;;;3.07;2.80;;;17.90;83.40;;;-142.21;100.00;112049.66;5113324;28;20527;-70
2022/10/17 00:22:45;;;;;;;7.00;3.23;;;17.90;83.40;;;-142.21;100.00;112049.66;5113220;28;20803;-70
2022/10/17 00:25:14;;;;;;;4.90;2.67;;;17.90;83.20;;;-142.21;100.00;112049.66;5113948;28;20438;-70
2022/10/17 00:27:42;;;;;;;5.80;3.57;;;17.80;83.00;;;-142.21;100.00;112049.66;5062105;28;20942;-70
2022/10/17 00:30:15;;;;;;;6.40;3.70;;;17.70;83.40;;;-142.21;100.00;112049.66;5113677;28;20823;-70
2022/10/17 00:32:43;;;;;;;5.37;3.33;;;17.70;83.60;;;-142.21;100.00;112049.66;5113024;28;20422;-69
2022/10/17 00:35:11;;;;;;;4.17;3.17;;;17.70;83.50;;;-142.21;100.00;112049.66;5113215;28;20473;-70
2022/10/17 00:37:38;;;;;;;6.67;3.40;;;17.70;83.70;;;-142.21;100.00;112049.66;5113496;28;20801;-70
2022/10/17 00:40:07;;;;;;;4.93;3.20;;;17.70;83.80;;;-142.21;100.00;112049.66;5112712;28;20447;-71
2022/10/17 00:42:35;;;;;;;9.73;3.20;;;17.60;83.90;;;-142.21;100.00;112049.66;5113502;28;20810;-69
2022/10/17 00:45:18;;;;;;;6.57;3.30;;;17.60;83.50;;;-142.21;100.00;112049.66;5112938;28;20451;-70
2022/10/17 00:47:52;;;;;;;7.93;3.50;;;17.60;83.50;;;-142.21;100.00;112049.66;5112198;28;20512;-70
2022/10/17 00:50:21;;;;;;;4.73;3.17;;;17.60;83.70;;;-142.21;100.00;112049.66;5113165;28;20426;-71
2022/10/17 00:52:50;;;;;;;5.77;2.80;;;17.60;83.50;;;-142.21;100.00;112049.66;5112693;28;20434;-69
2022/10/17 00:55:23;;;;;;;6.10;2.90;;;17.60;83.20;;;-142.21;100.00;112049.66;5112874;28;20949;-70
2022/10/17 00:57:52;;;;;;;5.67;3.00;;;17.60;83.10;;;-142.21;100.00;112049.66;5112408;28;20783;-71
2022/10/17 01:00:22;;;;;;;6.60;3.20;;;17.50;83.00;;;-142.21;100.00;112049.66;5112586;28;20498;-70
2022/10/17 01:02:49;;;;;;;5.73;3.13;;;17.50;83.00;;;-142.21;100.00;112049.66;5111743;28;20442;-70
2022/10/17 01:05:19;;;;;;;5.70;3.47;;;17.50;83.00;;;-142.21;100.00;112049.66;5112443;28;20445;-69
2022/10/17 01:07:48;;;;;;;8.23;3.33;;;17.50;83.10;;;-142.21;100.00;112049.66;5111887;28;20524;-70
2022/10/17 01:10:17;;;;;;;7.63;3.20;;;17.40;83.00;;;-142.21;100.00;112049.66;5112711;28;20442;-70
2022/10/17 01:13:11;;;;;;;6.90;3.13;;;17.40;83.00;;;-142.21;100.00;112049.66;5113003;28;20464;-70
2022/10/17 01:15:55;;;;;;;3.63;3.20;;;17.40;83.00;;;-142.21;100.00;112049.66;5112645;28;20422;-71
2022/10/17 01:18:47;;;;;;;6.83;3.50;;;17.40;83.30;;;-142.21;100.00;112049.66;5111964;28;21003;-71
2022/10/17 01:21:44;;;;;;;9.40;3.60;;;17.40;83.30;;;-142.21;100.00;112049.66;5112277;28;20517;-70
2022/10/17 01:24:55;;;;;;;6.53;3.10;;;17.40;83.20;;;-142.21;100.00;112049.66;5112426;28;20424;-71
2022/10/17 01:27:51;;;;;;;4.93;3.00;;;17.40;83.30;;;-142.21;100.00;112049.66;5112439;28;20485;-70
2022/10/17 01:31:03;;;;;;;3.10;2.80;;;17.30;83.00;;;-142.21;100.00;112049.66;5111993;28;20472;-70
2022/10/17 01:33:48;;;;;;;6.57;3.00;;;17.30;83.40;;;-142.21;100.00;112049.66;5112345;28;20448;-70
2022/10/17 01:36:37;;;;;;;5.03;2.50;;;17.20;83.40;;;-142.21;100.00;112049.66;5112232;28;20446;-69
2022/10/17 01:39:17;;;;;;;2.93;2.50;;;17.20;83.60;;;-142.21;100.00;112049.66;5059104;28;20517;-69
2022/10/17 01:41:52;;;;;;;3.07;2.37;;;17.20;83.50;;;-142.21;100.00;112049.66;5094890;28;20421;-69
2022/10/17 01:44:29;;;;;;;4.37;2.47;;;17.20;83.60;;;-142.21;100.00;112049.66;5111899;28;20509;-70
2022/10/17 01:47:06;;;;;;;5.73;3.20;;;17.20;83.30;;;-142.21;100.00;112049.66;5111516;28;20473;-71
2022/10/17 01:49:38;;;;;;;5.13;2.47;;;17.20;83.30;;;-142.21;100.00;112049.66;5112174;28;20973;-69
2022/10/17 01:52:13;;;;;;;5.13;2.70;;;17.20;83.30;;;-142.21;100.00;112049.66;5111452;28;20518;-70
2022/10/17 01:54:45;;;;;;;4.63;2.60;;;17.10;83.20;;;-142.21;100.00;112049.66;5112144;28;20420;-70
2022/10/17 01:57:21;;;;;;;4.10;2.50;;;17.10;83.20;;;-142.21;100.00;112049.66;5111490;28;20440;-69
2022/10/17 01:59:54;;;;;;;2.77;2.50;;;17.10;83.10;;;-142.21;100.00;112049.66;5058734;28;20535;-70
2022/10/17 02:02:25;;;;;;;3.63;2.20;;;17.10;83.30;;;-142.21;100.00;112049.66;5111767;28;20473;-70
2022/10/17 02:04:55;;;;;;;5.37;2.57;;;17.10;83.30;;;-142.21;100.00;112049.66;5093256;28;20422;-69
2022/10/17 02:07:25;;;;;;;3.27;2.47;;;17.00;83.40;;;-142.21;100.00;112049.66;5111490;28;21032;-69
2022/10/17 02:09:52;;;;;;;7.30;2.70;;;17.00;83.30;;;-142.21;100.00;112049.66;5111322;28;20441;-71
2022/10/17 02:12:47;;;;;;;3.50;2.53;;;17.00;83.30;;;-142.21;100.00;112049.66;5111974;28;20524;-70
2022/10/17 02:15:55;;;;;;;2.27;2.07;;;17.00;83.50;;;-142.21;100.00;112049.66;5113918;28;20893;-70
2022/10/17 02:18:49;;;;;;;4.90;2.63;;;17.00;83.40;;;-142.21;100.00;112049.66;5116098;28;20855;-70
2022/10/17 02:21:33;;;;;;;5.43;2.50;;;17.00;83.40;;;-142.21;100.00;112049.66;5116360;28;20428;-70
2022/10/17 02:24:16;;;;;;;4.83;2.30;;;16.90;84.00;;;-142.21;100.00;112049.66;5115582;28;20428;-71
2022/10/17 02:26:53;;;;;;;4.27;2.60;;;16.90;83.10;;;-142.21;100.00;112049.66;5115686;28;21076;-70
2022/10/17 02:29:25;;;;;;;5.90;2.33;;;16.90;83.20;;;-142.21;100.00;112049.66;5115619;28;20552;-69
2022/10/17 02:32:03;;;;;;;3.27;2.10;;;16.90;83.10;;;-142.21;100.00;112049.66;5115125;28;20421;-70
2022/10/17 02:34:38;;;;;;;6.27;2.63;;;16.90;83.00;;;-142.21;100.00;112049.66;5115947;28;20417;-69
2022/10/17 02:37:10;;;;;;;4.17;2.60;;;16.90;82.90;;;-142.21;100.00;112049.66;5115528;28;20805;-69
2022/10/17 02:39:40;;;;;;;4.60;2.70;;;16.90;83.10;;;-142.21;100.00;112049.66;5115511;28;20425;-70
2022/10/17 02:42:16;;;;;;;3.23;2.37;;;16.90;83.20;;;-142.21;100.00;112049.66;5114880;28;20781;-69
2022/10/17 02:44:47;;;;;;;4.90;2.40;;;16.90;83.20;;;-142.21;100.00;112049.66;5115595;28;20521;-69
2022/10/17 02:47:23;;;;;;;5.20;2.67;;;16.80;83.00;;;-142.21;100.00;112049.66;5114626;28;20465;-69
2022/10/17 02:49:57;;;;;;;4.57;2.90;;;16.80;83.10;;;-142.21;100.00;112049.66;5115663;28;20799;-70
2022/10/17 02:52:38;;;;;;;4.83;2.40;;;16.80;83.10;;;-142.21;100.00;112049.66;5115513;28;20422;-71
2022/10/17 02:55:16;;;;;;;6.83;2.40;;;16.80;83.00;;;-142.21;100.00;112049.66;5113787;28;20429;-70
2022/10/17 02:57:50;;;;;;;5.30;2.50;;;16.70;83.00;;;-142.21;100.00;112049.66;5115485;28;20421;-70
2022/10/17 03:00:32;;;;;;;6.87;2.63;;;16.70;83.20;;;-142.21;100.00;112049.66;5114707;28;20418;-70
2022/10/17 03:02:59;;;;;;;3.70;2.63;;;16.70;83.70;;;-142.21;100.00;112049.66;5114799;28;20453;-70
2022/10/17 03:05:29;;;;;;;3.90;2.67;;;16.70;83.60;;;-142.21;100.00;112049.66;5114962;28;20536;-70
2022/10/17 03:07:57;;;;;;;6.67;2.70;;;16.70;83.70;;;-142.21;100.00;112049.66;5114633;28;20465;-70
2022/10/17 03:10:24;;;;;;;4.63;2.90;;;16.70;83.90;;;-142.21;100.00;112049.66;5114764;28;20437;-69
2022/10/17 03:12:51;;;;;;;3.60;2.77;;;16.60;83.80;;;-142.21;100.00;112049.66;5114975;28;20440;-70
2022/10/17 03:15:18;;;;;;;3.00;2.30;;;16.60;83.80;;;-142.21;100.00;112049.66;5114994;28;20467;-71
2022/10/17 03:17:45;;;;;;;7.33;2.63;;;16.60;83.60;;;-142.21;100.00;112049.66;5114906;28;20508;-70
2022/10/17 03:20:12;;;;;;;4.73;2.70;;;16.60;83.40;;;-142.21;100.00;112049.66;5114176;28;20838;-71
2022/10/17 03:22:43;;;;;;;2.50;2.30;;;16.60;83.10;;;-142.21;100.00;112049.66;5114937;28;20453;-70
2022/10/17 03:25:10;;;;;;;4.57;2.40;;;16.60;83.20;;;-142.21;100.00;112049.66;5113992;28;20429;-70
2022/10/17 03:27:37;;;;;;;2.80;2.50;;;16.60;83.20;;;-142.21;100.00;112049.66;5114802;28;20517;-70
2022/10/17 03:30:06;;;;;;;2.53;2.33;;;16.60;83.20;;;-142.21;100.00;112049.66;5114072;28;20544;-70
2022/10/17 03:32:34;;;;;;;2.67;2.37;;;16.60;83.10;;;-142.21;100.00;112049.66;5114686;28;20445;-70
2022/10/17 03:35:01;;;;;;;2.70;2.50;;;16.50;83.10;;;-142.21;100.00;112049.66;5114075;28;20796;-70
2022/10/17 03:37:28;;;;;;;6.20;2.80;;;16.50;83.20;;;-142.21;100.00;112049.66;5114741;28;20433;-70
2022/10/17 03:39:57;;;;;;;3.97;2.80;;;16.50;83.10;;;-142.21;100.00;112049.66;5113280;28;20483;-70
2022/10/17 03:42:24;;;;;;;5.87;2.90;;;16.50;83.30;;;-142.21;100.00;112049.66;5114686;28;20532;-70
2022/10/17 03:44:51;;;;;;;3.60;2.43;;;16.50;83.20;;;-142.21;100.00;112049.66;5114399;28;20441;-69
2022/10/17 03:47:18;;;;;;;5.10;2.53;;;16.50;83.00;;;-142.21;100.00;112049.66;5113689;28;20513;-69
2022/10/17 03:49:45;;;;;;;4.47;2.47;;;16.50;82.90;;;-142.21;100.00;112049.66;5114462;28;20445;-69
2022/10/17 03:52:15;;;;;;;3.77;2.53;;;16.50;82.90;;;-142.21;100.00;112049.66;5113815;28;20824;-69
2022/10/17 03:54:42;;;;;;;8.40;2.87;;;16.40;82.90;;;-142.21;100.00;112049.66;5113661;28;20952;-69
2022/10/17 03:57:13;;;;;;;3.47;3.03;;;16.50;83.00;;;-142.21;100.00;112049.66;5113542;28;20769;-70
2022/10/17 03:59:40;;;;;;;4.37;2.47;;;16.40;82.90;;;-142.21;100.00;112049.66;5113993;28;20425;-69
2022/10/17 04:02:07;;;;;;;5.07;2.63;;;16.40;82.90;;;-142.21;100.00;112049.66;5113410;28;20805;-70
2022/10/17 04:04:34;;;;;;;3.67;2.77;;;16.40;83.80;;;-142.21;100.00;112049.66;5114192;28;20442;-70
2022/10/17 04:07:02;;;;;;;7.37;2.80;;;16.40;83.10;;;-142.21;100.00;112049.66;5113333;28;20507;-69
2022/10/17 04:09:29;;;;;;;2.60;2.40;;;16.40;83.00;;;-142.21;100.00;112049.66;5113793;28;20473;-69
2022/10/17 04:11:56;;;;;;;2.53;2.33;;;16.30;82.70;;;-142.21;100.00;112049.66;5113351;28;20528;-69
2022/10/17 04:14:25;;;;;;;4.93;2.30;;;16.40;82.90;;;-142.21;100.00;112049.66;5113747;28;20451;-69
2022/10/17 04:16:52;;;;;;;6.10;2.60;;;16.30;82.60;;;-142.21;100.00;112049.66;5114051;28;20796;-70
2022/10/17 04:19:19;;;;;;;7.27;2.60;;;16.30;82.50;;;-142.21;100.00;112049.66;5112778;28;21029;-70
2022/10/17 04:21:50;;;;;;;3.13;2.43;;;16.30;82.60;;;-142.21;100.00;112049.66;5113459;28;20444;-69
2022/10/17 04:24:17;;;;;;;4.67;2.40;;;16.30;82.50;;;-142.21;100.00;112049.66;5112968;28;20426;-69
2022/10/17 04:26:45;;;;;;;4.47;2.67;;;16.30;82.50;;;-142.21;100.00;112049.66;5113642;28;20449;-69
2022/10/17 04:29:12;;;;;;;5.37;2.43;;;16.20;82.70;;;-142.21;100.00;112049.66;5112874;28;20457;-69
2022/10/17 04:31:40;;;;;;;4.10;2.50;;;16.30;82.80;;;-142.21;100.00;112049.66;5113375;28;20441;-70
2022/10/17 04:34:07;;;;;;;5.07;2.60;;;16.20;82.40;;;-142.21;100.00;112049.66;5112954;28;20445;-70
2022/10/17 04:36:36;;;;;;;2.57;2.37;;;16.20;82.70;;;-142.21;100.00;112049.66;5112763;28;20815;-70
2022/10/17 04:39:04;;;;;;;4.00;2.47;;;16.20;82.70;;;-142.21;100.00;112049.66;5112474;28;20498;-70
2022/10/17 04:41:32;;;;;;;4.80;2.50;;;16.20;82.60;;;-142.21;100.00;112049.66;5112853;28;20529;-69
2022/10/17 04:43:59;;;;;;;5.27;2.50;;;16.20;82.60;;;-142.21;100.00;112049.66;5112943;28;20525;-69
2022/10/17 04:46:28;;;;;;;2.67;2.47;;;16.20;82.70;;;-142.21;100.00;112049.66;5113336;28;20442;-69
2022/10/17 04:48:57;;;;;;;3.97;2.93;;;16.20;82.80;;;-142.21;100.00;112049.66;5113098;28;20481;-69
2022/10/17 04:51:24;;;;;;;9.83;3.10;;;16.20;82.70;;;-142.21;100.00;112049.66;5113104;28;20445;-70
2022/10/17 04:53:51;;;;;;;5.60;3.73;;;16.20;83.00;;;-142.21;100.00;112049.66;5113353;28;21005;-70
2022/10/17 04:56:22;;;;;;;6.53;2.73;;;16.20;83.00;;;-142.21;100.00;112049.66;5112225;28;20524;-70
2022/10/17 04:58:50;;;;;;;7.77;2.50;;;16.20;83.10;;;-142.21;100.00;112049.66;5113249;28;20433;-69
2022/10/17 05:01:21;;;;;;;6.07;2.50;;;16.20;83.10;;;-142.21;100.00;112049.66;5112284;28;20486;-69
2022/10/17 05:03:48;;;;;;;3.23;2.70;;;16.20;83.20;;;-142.21;100.00;112049.66;5112945;28;20454;-69
2022/10/17 05:06:23;;;;;;;4.10;2.80;;;16.20;83.30;;;-142.21;100.00;112049.66;5112102;28;20540;-69
2022/10/17 05:08:54;;;;;;;10.20;3.23;;;16.10;83.20;;;-142.21;100.00;112049.66;5112697;28;20798;-69
2022/10/17 05:11:23;;;;;;;3.70;2.87;;;16.20;83.20;;;-142.21;100.00;112049.66;5112032;28;20429;-69
2022/10/17 05:13:53;;;;;;;6.17;3.10;;;16.10;83.00;;;-142.21;100.00;112049.66;5112595;28;20514;-69
2022/10/17 05:16:21;;;;;;;5.33;2.67;;;16.10;82.90;;;-142.21;100.00;112049.66;5112105;28;20441;-69
2022/10/17 05:18:52;;;;;;;3.70;2.80;;;16.10;83.10;;;-142.21;100.00;112049.66;5112362;28;20469;-70
2022/10/17 05:21:23;;;;;;;6.50;3.13;;;16.10;83.00;;;-142.21;100.00;112049.66;5111827;28;20522;-70
2022/10/17 05:23:50;;;;;;;6.00;2.87;;;16.10;83.00;;;-142.21;100.00;112049.66;5112453;28;20505;-70
2022/10/17 05:26:18;;;;;;;5.70;2.70;;;16.10;83.00;;;-142.21;100.00;112049.66;5111762;28;20446;-70
2022/10/17 05:28:45;;;;;;;4.03;2.77;;;16.10;82.90;;;-142.21;100.00;112049.66;5112497;28;21007;-70
2022/10/17 05:31:13;;;;;;;6.07;3.07;;;16.10;82.70;;;-142.21;100.00;112049.66;5111838;28;20437;-70
2022/10/17 05:33:41;;;;;;;7.33;3.70;;;16.10;83.00;;;-142.21;100.00;112049.66;5112254;28;20446;-70
2022/10/17 05:36:09;;;;;;;6.67;4.20;;;16.00;83.20;;;-142.21;100.00;112049.66;5111261;28;20860;-69
2022/10/17 05:38:38;;;;;;;3.27;2.97;;;16.00;83.10;;;-142.21;100.00;112049.66;5112219;28;20860;-69
2022/10/17 05:41:06;;;;;;;4.27;3.00;;;16.00;83.30;;;-142.21;100.00;112049.66;5111503;28;20437;-69
2022/10/17 05:43:34;;;;;;;3.63;2.70;;;16.00;83.20;;;-142.21;100.00;112049.66;5111865;28;20434;-69
2022/10/17 05:46:05;;;;;;;4.87;2.80;;;16.00;83.90;;;-142.21;100.00;112049.66;5111518;28;20521;-69
2022/10/17 05:48:33;;;;;;;6.87;3.23;;;15.90;83.80;;;-142.21;100.00;112049.66;5111399;28;20462;-69
2022/10/17 05:51:04;;;;;;;4.30;3.10;;;16.00;83.90;;;-142.21;100.00;112049.66;5111419;28;20532;-70
2022/10/17 05:53:33;;;;;;;7.40;3.13;;;16.00;83.60;;;-142.21;100.00;112049.66;5111817;28;20418;-70
2022/10/17 05:56:06;;;;;;;8.97;3.03;;;16.00;83.70;;;-142.21;100.00;112049.66;5111752;28;20591;-70
2022/10/17 05:58:34;;;;;;;6.90;4.00;;;16.00;83.90;;;-142.21;100.00;112049.66;5112062;28;20848;-70
2022/10/17 06:01:06;;;;;;;6.30;3.30;;;15.90;83.30;;;-142.21;100.00;112049.66;5111212;28;20521;-70
2022/10/17 06:03:33;;;;;;;5.50;2.57;;;16.00;83.60;;;-142.21;100.00;112049.66;5111815;28;20457;-70
2022/10/17 06:06:05;;;;;;;3.00;2.70;;;16.00;83.50;;;-142.21;100.00;112049.66;5111541;28;20557;-70
2022/10/17 06:08:32;;;;;;;4.23;3.10;;;16.00;83.70;;;-142.21;100.00;112049.66;5111544;28;20556;-70
2022/10/17 06:11:01;;;;;;;4.17;2.67;;;15.90;83.80;;;-142.21;100.00;112049.66;5112254;28;20448;-70
2022/10/17 06:13:29;;;;;;;4.60;2.60;;;15.90;83.70;;;-142.21;100.00;112049.66;5111781;28;20448;-70
2022/10/17 06:15:56;;;;;;;4.73;2.60;;;15.90;83.70;;;-142.21;100.00;112049.66;5111910;28;20790;-69
2022/10/17 06:18:25;;;;;;;3.67;2.50;;;16.00;83.80;;;-142.21;100.00;112049.66;5110523;28;20501;-70
2022/10/17 06:20:52;;;;;;;8.03;2.97;;;16.00;83.80;;;-142.21;100.00;112049.66;5111972;28;20536;-70
2022/10/17 06:23:20;;;;;;;3.73;2.53;;;16.00;83.50;;;-142.21;100.00;112049.66;5111422;28;20528;-69
2022/10/17 06:25:47;;;;;;;4.27;3.07;;;16.00;83.50;;;-142.21;100.00;112049.66;5111504;28;20528;-70
2022/10/17 06:28:15;;;;;;;3.00;2.60;;;16.10;83.60;;;-142.21;100.00;112049.66;5110784;28;20534;-69
2022/10/17 06:30:42;;;;;;;5.00;2.67;;;16.10;83.60;;;-142.21;100.00;112049.66;5111496;28;20942;-69
2022/10/17 06:33:09;;;;;;;5.50;2.67;;;16.10;83.60;;;-142.21;100.00;112049.66;5110826;28;20536;-69
2022/10/17 06:35:37;;;;;;;3.50;2.50;;;16.10;83.60;;;-142.21;100.00;112049.66;5111701;28;20449;-70
2022/10/17 06:38:04;;;;;;;5.20;2.43;;;16.10;83.70;;;-142.21;100.00;112049.66;5110951;28;20446;-69
2022/10/17 06:40:32;;;;;;;2.97;2.03;;;16.10;83.70;;;-142.21;100.00;112049.66;5111619;28;20805;-70
2022/10/17 06:42:59;;;;;;;7.53;2.60;;;16.10;83.90;;;-142.21;100.00;112049.66;5111739;28;20448;-70
2022/10/17 06:45:28;;;;;;;4.10;2.50;;;16.20;84.10;;;-142.21;100.00;112049.66;5110992;28;20807;-70
2022/10/17 06:47:55;;;;;;;3.17;2.87;;;16.20;84.20;;;-142.21;100.00;112049.66;5111188;28;20538;-69
2022/10/17 06:50:22;;;;;;;6.77;2.70;;;16.20;84.40;;;-142.21;100.00;112049.66;5110978;28;20523;-69
2022/10/17 06:52:51;;;;;;;4.90;3.07;;;16.30;84.50;;;-142.21;100.00;112049.66;5111286;28;20476;-69
2022/10/17 06:55:18;;;;;;;5.20;2.77;;;16.30;84.70;;;-142.21;100.00;112049.66;5110942;28;20441;-69
2022/10/17 06:57:46;;;;;;;6.83;3.07;;;16.40;85.10;;;-142.21;100.00;112049.66;5111546;28;20491;-69
2022/10/17 07:00:13;;;;;;;4.53;2.80;;;16.50;85.40;;;-142.21;100.00;112049.66;5110988;28;20441;-69
2022/10/17 07:02:42;;;;;;;6.33;3.37;;;16.50;85.20;;;-142.21;100.00;112049.66;5114968;28;20445;-70
2022/10/17 07:05:11;;;;;;;8.17;3.13;;;16.60;86.10;;;-142.21;100.00;112049.66;5114644;28;20441;-69
2022/10/17 07:07:38;;;;;;;6.97;3.00;;;16.70;86.00;;;-142.21;100.00;112049.66;5114902;28;20549;-69
2022/10/17 07:10:07;;;;;;;4.57;3.57;;;16.80;86.00;;;-142.21;100.00;112049.66;5114941;28;20441;-70
2022/10/17 07:12:35;;;;;;;7.40;2.93;;;16.80;86.20;;;-142.21;100.00;112049.66;5115291;28;20456;-70
2022/10/17 07:15:03;;;;;;;7.53;3.17;;;16.90;86.10;;;-142.21;100.00;112049.66;5115047;28;20441;-70
2022/10/17 07:17:30;;;;;;;4.57;2.87;;;17.00;86.10;;;-142.21;100.00;112049.66;5113751;28;20473;-70
2022/10/17 07:19:59;;;;;;;7.37;3.60;;;17.10;86.10;;;-142.21;100.00;112049.66;5114755;28;20432;-69
2022/10/17 07:22:26;;;;;;;4.20;3.10;;;17.20;86.60;;;-142.21;100.00;112049.66;5114149;28;20447;-71
2022/10/17 07:24:53;;;;;;;5.90;3.20;;;17.30;86.50;;;-142.21;100.00;112049.66;5114735;28;20954;-69
2022/10/17 07:27:21;;;;;;;7.63;3.00;;;17.40;86.60;;;-142.21;100.00;112049.66;5113916;28;20449;-69
2022/10/17 07:29:48;;;;;;;4.53;3.50;;;17.50;86.50;;;-142.21;100.00;112049.66;5114647;28;20568;-69
2022/10/17 07:32:15;;;;;;;7.77;3.40;;;17.50;86.40;;;-142.21;100.00;112049.66;5113653;28;20476;-69
2022/10/17 07:34:45;;;;;;;6.00;3.77;;;17.60;86.60;;;-142.21;100.00;112049.66;5114415;28;20845;-70
2022/10/17 07:37:14;;;;;;;7.13;3.07;;;17.70;86.60;;;-142.21;100.00;112049.66;5114542;28;20510;-70
2022/10/17 07:39:41;;;;;;;6.00;3.77;;;17.80;86.50;;;-142.21;100.00;112049.66;5114746;28;20466;-69
2022/10/17 07:42:08;;;;;;;3.23;2.93;;;17.90;86.50;;;-142.21;100.00;112049.66;5113726;28;20442;-69
2022/10/17 07:44:35;;;;;;;5.33;3.87;;;18.00;86.30;;;-142.21;100.00;112049.66;5114308;28;20442;-69
2022/10/17 07:47:03;;;;;;;3.67;3.00;;;18.20;86.30;;;-142.21;100.00;112049.66;5114259;28;20514;-69
2022/10/17 07:49:30;;;;;;;6.27;3.53;;;18.30;85.70;;;-142.21;100.00;112049.66;5113207;28;20513;-69
2022/10/17 07:51:58;;;;;;;3.57;3.20;;;18.40;85.70;;;-142.21;100.00;112049.66;5114180;28;20477;-69
2022/10/17 07:54:27;;;;;;;5.00;3.00;;;18.50;85.20;;;-142.21;100.00;112049.66;5113747;28;20441;-68
2022/10/17 07:56:54;;;;;;;3.50;3.17;;;18.60;85.30;;;-142.21;100.00;112049.66;5114186;28;20438;-69
2022/10/17 07:59:23;;;;;;;4.80;3.20;;;18.80;85.20;;;-142.21;100.00;112049.66;5113426;28;20452;-70
2022/10/17 08:01:50;;;;;;;4.03;3.30;;;18.90;85.30;;;-142.21;100.00;112049.66;5114106;28;20569;-69
2022/10/17 08:04:18;;;;;;;5.40;3.20;;;19.10;85.20;;;-142.21;100.00;112049.66;5113187;28;20495;-70
2022/10/17 08:06:45;;;;;;;5.47;2.80;;;19.20;84.80;;;-142.21;100.00;112049.66;5113743;28;20471;-69
2022/10/17 08:09:13;;;;;;;3.13;2.73;;;19.30;84.70;;;-142.21;100.00;112049.66;5112955;28;20542;-70
2022/10/17 08:11:43;;;;;;;6.67;3.27;;;19.40;84.40;;;-142.21;100.00;112049.66;5113454;28;20446;-70
2022/10/17 08:14:10;;;;;;;5.07;2.60;;;19.50;83.90;;;-142.21;100.00;112049.66;5112775;28;20491;-70
2022/10/17 08:16:38;;;;;;;5.17;3.10;;;19.70;83.80;;;-142.21;100.00;112049.66;5113559;28;20199;-70
2022/10/17 08:19:07;;;;;;;6.67;3.57;;;19.80;83.70;;;-142.21;100.00;112049.66;5113344;28;20477;-70
2022/10/17 08:21:35;;;;;;;8.67;3.10;;;19.90;83.30;;;-142.21;100.00;112049.66;5114024;28;20254;-70
2022/10/17 08:24:02;;;;;;;4.80;3.07;;;20.10;83.00;;;-142.21;100.00;112049.66;5113645;28;20204;-70
2022/10/17 08:26:30;;;;;;;5.67;2.80;;;20.20;82.60;;;-142.21;100.00;112049.66;5113206;28;20580;-70
2022/10/17 08:28:59;;;;;;;4.40;2.60;;;20.40;82.80;;;-142.21;100.00;112049.66;5113269;28;20628;-69
2022/10/17 08:31:27;;;;;;;3.23;2.73;;;20.50;82.20;;;-142.21;100.00;112049.66;5112760;28;20352;-69
2022/10/17 08:33:54;;;;;;;3.80;2.90;;;20.70;82.10;;;-142.21;100.00;112049.66;5113128;28;20728;-70
2022/10/17 08:36:24;;;;;;;3.80;2.70;;;20.80;81.70;;;-142.21;100.00;112049.66;5112571;28;20261;-70
2022/10/17 08:38:52;;;;;;;3.10;2.60;;;21.00;81.40;;;-142.21;100.00;112049.66;5113491;28;20226;-70
2022/10/17 08:41:52;;;;;;;2.90;2.60;;;21.10;80.80;;;-142.21;100.00;112049.66;5112452;28;20204;-70
2022/10/17 08:44:38;;;;;;;4.17;2.70;;;21.20;79.10;;;-142.21;100.00;112049.66;5112468;28;20188;-69
2022/10/17 08:47:13;;;;;;;6.87;3.33;;;21.30;79.50;;;-142.21;100.00;112049.66;5113165;28;20219;-69
2022/10/17 08:49:51;;;;;;;6.53;3.27;;;21.50;79.30;;;-142.21;100.00;112049.66;5112771;28;20203;-70
2022/10/17 08:52:34;;;;;;;7.13;3.20;;;21.60;77.60;;;-142.21;100.00;112049.66;5112728;28;20192;-70
2022/10/17 08:55:01;;;;;;;3.40;2.50;;;21.60;77.60;;;-142.21;100.00;112049.66;5113194;28;20216;-68
2022/10/17 08:57:29;;;;;;;4.07;2.90;;;21.70;78.10;;;-142.21;100.00;112049.66;5112420;28;20572;-71
2022/10/17 08:59:58;;;;;;;5.57;2.80;;;21.90;77.50;;;-142.21;100.00;112049.66;5112590;28;20200;-70
2022/10/17 09:02:49;;;;;;;3.37;2.57;;;21.90;76.10;;;-142.21;100.00;112049.66;5111900;28;20200;-70
2022/10/17 09:05:41;;;;;;;6.07;3.07;;;22.00;76.30;;;-142.21;100.00;112049.66;5111948;28;20227;-71
2022/10/17 09:08:30;;;;;;;9.30;3.60;;;22.10;74.10;;;-142.21;100.00;112049.66;5112113;28;20220;-71
2022/10/17 09:11:09;;;;;;;9.07;3.43;;;22.10;74.90;;;-142.21;100.00;112049.66;5112156;28;20246;-70
2022/10/17 09:14:01;;;;;;;6.00;3.40;;;22.20;75.20;;;-142.21;100.00;112049.66;5112657;28;20599;-70
2022/10/17 09:17:01;;;;;;;5.70;3.37;;;22.30;74.30;;;-142.21;100.00;112049.66;5111987;28;20525;-70
2022/10/17 09:19:35;;;;;;;4.67;3.10;;;22.40;73.80;;;-142.21;100.00;112049.66;5111730;28;20236;-69
2022/10/17 09:22:09;;;;;;;4.37;3.50;;;22.50;74.80;;;-142.21;99.46;112049.66;5112590;28;20601;-71
2022/10/17 09:24:45;;;;;;;6.17;3.30;;;22.60;74.10;;;-142.21;98.83;112049.66;5112221;28;20632;-70
2022/10/17 09:27:24;;;;;;;4.37;3.10;;;22.80;73.90;;;-142.21;97.92;112049.66;5111437;28;20656;-69
2022/10/17 09:30:11;;;;;;;5.07;3.30;;;22.90;73.30;;;-142.21;98.85;112049.66;5112334;28;20231;-70
2022/10/17 09:32:41;;;;;;;6.40;3.30;;;22.90;73.50;;;-142.21;97.32;112049.66;5112478;28;20271;-70
2022/10/17 09:35:14;;;;;;;3.40;3.10;;;23.10;72.90;;;-142.21;97.34;112049.66;5112217;28;20207;-70
2022/10/17 09:37:43;;;;;;;5.50;3.57;;;23.10;72.60;;;-142.21;96.25;112049.66;5112365;28;20271;-70
2022/10/17 09:40:22;;;;;;;5.37;3.07;;;23.20;72.30;;;-142.21;94.79;112049.66;5111863;28;20659;-70
2022/10/17 09:42:51;;;;;;;5.33;2.80;;;23.20;71.00;;;-142.21;96.00;112049.66;5112077;28;20231;-70
2022/10/17 09:45:24;;;;;;;5.97;3.07;;;23.20;71.80;;;-142.21;95.62;112049.66;5111336;28;20200;-69
2022/10/17 09:48:09;;;;;;;3.17;2.80;;;23.30;71.40;;;-142.21;93.13;112049.66;5111957;28;20190;-70
2022/10/17 09:50:39;;;;;;;4.03;2.63;;;23.40;70.70;;;-142.21;92.66;112049.66;5111490;28;20184;-71
2022/10/17 09:53:14;;;;;;;3.73;2.60;;;23.40;70.20;;;-142.21;91.77;112049.66;5112179;28;20189;-70
2022/10/17 09:55:47;;;;;;;3.33;2.47;;;23.30;69.50;;;-142.21;91.43;112049.66;5111808;28;20191;-70
2022/10/17 09:58:15;;;;;;;3.07;2.67;;;23.30;69.70;;;-142.21;93.36;112049.66;5111295;28;20184;-70
2022/10/17 10:00:47;;;;;;;2.67;2.47;;;23.40;70.60;;;-142.21;92.09;112049.66;5111690;28;20235;-71
2022/10/17 10:03:22;;;;;;;5.23;2.73;;;23.50;70.70;;;-142.21;90.32;112049.66;5111523;28;20609;-70
2022/10/17 10:06:03;;;;;;;2.70;2.50;;;23.70;68.90;;;-142.21;91.37;112049.66;5111966;28;20281;-70
2022/10/17 10:08:33;;;;;;;2.93;2.53;;;23.70;69.20;;;-142.21;90.77;112049.66;5111124;28;20191;-70
2022/10/17 10:11:05;;;;;;;4.43;2.60;;;23.80;69.20;;;-142.21;90.06;112049.66;5111371;28;20270;-70